sensor_id;sensor_type;location;lat;lon;timestamp;temperature;humidity
14140;DHT22;7150;53.514;9.988;2023-05-07T00:01:18;15.50;87.40
14140;DHT22;7150;53.514;9.988;2023-05-07T00:03:43;15.50;87.40
14140;DHT22;7150;53.514;9.988;2023-05-07T00:06:09;15.50;87.40
14140;DHT22;7150;53.514;9.988;2023-05-07T00:08:38;15.50;87.40
14140;DHT22;7150;53.514;9.988;2023-05-07T00:11:03;15.60;87.50
14140;DHT22;7150;53.514;9.988;2023-05-07T00:13:29;15.50;87.50
14140;DHT22;7150;53.514;9.988;2023-05-07T00:16:01;15.50;87.50
14140;DHT22;7150;53.514;9.988;2023-05-07T00:18:26;15.50;87.60
14140;DHT22;7150;53.514;9.988;2023-05-07T00:20:52;15.50;87.50
14140;DHT22;7150;53.514;9.988;2023-05-07T00:23:17;15.50;87.40
14140;DHT22;7150;53.514;9.988;2023-05-07T00:25:43;15.50;87.50
14140;DHT22;7150;53.514;9.988;2023-05-07T00:28:08;15.50;87.40
14140;DHT22;7150;53.514;9.988;2023-05-07T00:30:34;15.50;87.30
14140;DHT22;7150;53.514;9.988;2023-05-07T00:32:59;15.50;87.30
14140;DHT22;7150;53.514;9.988;2023-05-07T00:35:25;15.50;87.30
14140;DHT22;7150;53.514;9.988;2023-05-07T00:37:50;15.50;87.30
14140;DHT22;7150;53.514;9.988;2023-05-07T00:40:16;15.50;87.10
14140;DHT22;7150;53.514;9.988;2023-05-07T00:42:42;15.50;86.90
14140;DHT22;7150;53.514;9.988;2023-05-07T00:45:15;15.50;86.80
14140;DHT22;7150;53.514;9.988;2023-05-07T00:47:41;15.50;86.80
14140;DHT22;7150;53.514;9.988;2023-05-07T00:50:08;15.50;87.40
14140;DHT22;7150;53.514;9.988;2023-05-07T00:52:35;15.50;86.50
14140;DHT22;7150;53.514;9.988;2023-05-07T00:55:05;15.50;86.40
14140;DHT22;7150;53.514;9.988;2023-05-07T00:57:35;15.50;86.30
14140;DHT22;7150;53.514;9.988;2023-05-07T01:00:03;15.50;86.20
14140;DHT22;7150;53.514;9.988;2023-05-07T01:02:29;15.50;86.20
14140;DHT22;7150;53.514;9.988;2023-05-07T01:04:55;15.50;86.10
14140;DHT22;7150;53.514;9.988;2023-05-07T01:07:21;15.50;86.00
14140;DHT22;7150;53.514;9.988;2023-05-07T01:09:47;15.50;86.00
14140;DHT22;7150;53.514;9.988;2023-05-07T01:12:13;15.50;85.90
14140;DHT22;7150;53.514;9.988;2023-05-07T01:18:00;15.60;85.90
14140;DHT22;7150;53.514;9.988;2023-05-07T01:20:27;15.50;86.00
14140;DHT22;7150;53.514;9.988;2023-05-07T01:22:53;15.40;86.20
14140;DHT22;7150;53.514;9.988;2023-05-07T01:25:19;15.50;86.30
14140;DHT22;7150;53.514;9.988;2023-05-07T01:27:45;15.40;86.20
14140;DHT22;7150;53.514;9.988;2023-05-07T01:30:11;15.50;86.40
14140;DHT22;7150;53.514;9.988;2023-05-07T01:32:44;15.50;86.20
14140;DHT22;7150;53.514;9.988;2023-05-07T01:35:21;15.50;85.90
14140;DHT22;7150;53.514;9.988;2023-05-07T01:37:48;15.50;85.70
14140;DHT22;7150;53.514;9.988;2023-05-07T01:40:14;15.50;85.60
14140;DHT22;7150;53.514;9.988;2023-05-07T01:42:42;15.50;85.50
14140;DHT22;7150;53.514;9.988;2023-05-07T01:45:08;15.50;85.30
14140;DHT22;7150;53.514;9.988;2023-05-07T01:47:34;15.60;85.40
14140;DHT22;7150;53.514;9.988;2023-05-07T01:50:01;15.60;85.20
14140;DHT22;7150;53.514;9.988;2023-05-07T01:52:27;15.60;85.10
14140;DHT22;7150;53.514;9.988;2023-05-07T01:54:53;15.60;85.00
14140;DHT22;7150;53.514;9.988;2023-05-07T01:57:18;15.50;84.80
14140;DHT22;7150;53.514;9.988;2023-05-07T01:59:44;15.50;84.80
14140;DHT22;7150;53.514;9.988;2023-05-07T02:02:09;15.50;84.60
14140;DHT22;7150;53.514;9.988;2023-05-07T02:04:35;15.50;84.50
14140;DHT22;7150;53.514;9.988;2023-05-07T02:07:00;15.50;84.50
14140;DHT22;7150;53.514;9.988;2023-05-07T02:09:26;15.50;84.50
14140;DHT22;7150;53.514;9.988;2023-05-07T02:11:51;15.50;84.40
14140;DHT22;7150;53.514;9.988;2023-05-07T02:14:17;15.50;84.40
14140;DHT22;7150;53.514;9.988;2023-05-07T02:16:42;15.50;84.40
14140;DHT22;7150;53.514;9.988;2023-05-07T02:19:08;15.50;84.30
14140;DHT22;7150;53.514;9.988;2023-05-07T02:21:33;15.50;84.40
14140;DHT22;7150;53.514;9.988;2023-05-07T02:23:59;15.50;84.30
14140;DHT22;7150;53.514;9.988;2023-05-07T02:26:24;15.50;84.30
14140;DHT22;7150;53.514;9.988;2023-05-07T02:28:51;15.50;84.30
14140;DHT22;7150;53.514;9.988;2023-05-07T02:31:17;15.50;84.40
14140;DHT22;7150;53.514;9.988;2023-05-07T02:33:42;15.50;84.50
14140;DHT22;7150;53.514;9.988;2023-05-07T02:36:11;15.50;84.50
14140;DHT22;7150;53.514;9.988;2023-05-07T02:38:37;15.60;84.60
14140;DHT22;7150;53.514;9.988;2023-05-07T02:41:03;15.60;84.60
14140;DHT22;7150;53.514;9.988;2023-05-07T02:43:28;15.60;84.60
14140;DHT22;7150;53.514;9.988;2023-05-07T02:46:01;15.60;84.80
14140;DHT22;7150;53.514;9.988;2023-05-07T02:48:27;15.50;84.90
14140;DHT22;7150;53.514;9.988;2023-05-07T02:50:52;15.50;85.10
14140;DHT22;7150;53.514;9.988;2023-05-07T02:53:17;15.50;85.30
14140;DHT22;7150;53.514;9.988;2023-05-07T02:55:43;15.40;85.30
14140;DHT22;7150;53.514;9.988;2023-05-07T02:58:09;15.40;85.60
14140;DHT22;7150;53.514;9.988;2023-05-07T03:00:34;15.40;85.80
14140;DHT22;7150;53.514;9.988;2023-05-07T03:03:00;15.40;86.00
14140;DHT22;7150;53.514;9.988;2023-05-07T03:05:25;15.40;86.10
14140;DHT22;7150;53.514;9.988;2023-05-07T03:07:51;15.40;86.30
14140;DHT22;7150;53.514;9.988;2023-05-07T03:10:16;15.40;86.40
14140;DHT22;7150;53.514;9.988;2023-05-07T03:12:42;15.40;86.50
14140;DHT22;7150;53.514;9.988;2023-05-07T03:15:08;15.50;86.60
14140;DHT22;7150;53.514;9.988;2023-05-07T03:17:34;15.50;86.60
14140;DHT22;7150;53.514;9.988;2023-05-07T03:19:59;15.50;86.70
14140;DHT22;7150;53.514;9.988;2023-05-07T03:22:25;15.40;86.80
14140;DHT22;7150;53.514;9.988;2023-05-07T03:24:50;15.40;87.10
14140;DHT22;7150;53.514;9.988;2023-05-07T03:27:16;15.40;87.10
14140;DHT22;7150;53.514;9.988;2023-05-07T03:29:41;15.40;87.00
14140;DHT22;7150;53.514;9.988;2023-05-07T03:32:06;15.40;87.00
14140;DHT22;7150;53.514;9.988;2023-05-07T03:34:32;15.50;87.10
14140;DHT22;7150;53.514;9.988;2023-05-07T03:36:57;15.40;87.10
14140;DHT22;7150;53.514;9.988;2023-05-07T03:39:23;15.40;87.30
14140;DHT22;7150;53.514;9.988;2023-05-07T03:41:49;15.40;87.30
14140;DHT22;7150;53.514;9.988;2023-05-07T03:44:14;15.40;87.30
14140;DHT22;7150;53.514;9.988;2023-05-07T03:46:40;15.50;87.50
14140;DHT22;7150;53.514;9.988;2023-05-07T03:49:05;15.40;87.50
14140;DHT22;7150;53.514;9.988;2023-05-07T03:51:31;15.40;87.50
14140;DHT22;7150;53.514;9.988;2023-05-07T03:53:56;15.40;87.70
14140;DHT22;7150;53.514;9.988;2023-05-07T03:56:22;15.20;87.50
14140;DHT22;7150;53.514;9.988;2023-05-07T03:58:48;15.40;87.50
14140;DHT22;7150;53.514;9.988;2023-05-07T04:01:13;15.40;87.40
14140;DHT22;7150;53.514;9.988;2023-05-07T04:03:39;15.40;87.20
14140;DHT22;7150;53.514;9.988;2023-05-07T04:06:05;15.40;87.10
14140;DHT22;7150;53.514;9.988;2023-05-07T04:08:31;15.40;87.00
14140;DHT22;7150;53.514;9.988;2023-05-07T04:10:57;15.40;86.70
14140;DHT22;7150;53.514;9.988;2023-05-07T04:13:22;15.40;86.50
14140;DHT22;7150;53.514;9.988;2023-05-07T04:15:48;15.40;86.30
14140;DHT22;7150;53.514;9.988;2023-05-07T04:18:14;15.40;86.00
14140;DHT22;7150;53.514;9.988;2023-05-07T04:20:40;15.50;85.90
14140;DHT22;7150;53.514;9.988;2023-05-07T04:23:05;15.40;85.70
14140;DHT22;7150;53.514;9.988;2023-05-07T04:25:31;15.40;85.60
14140;DHT22;7150;53.514;9.988;2023-05-07T04:27:56;15.40;85.50
14140;DHT22;7150;53.514;9.988;2023-05-07T04:30:22;15.50;85.50
14140;DHT22;7150;53.514;9.988;2023-05-07T04:32:47;15.50;85.40
14140;DHT22;7150;53.514;9.988;2023-05-07T04:35:13;15.50;85.20
14140;DHT22;7150;53.514;9.988;2023-05-07T04:37:39;15.50;85.10
14140;DHT22;7150;53.514;9.988;2023-05-07T04:40:06;15.50;85.20
14140;DHT22;7150;53.514;9.988;2023-05-07T04:42:32;15.50;85.30
14140;DHT22;7150;53.514;9.988;2023-05-07T04:44:58;15.50;85.10
14140;DHT22;7150;53.514;9.988;2023-05-07T04:47:23;15.50;85.10
14140;DHT22;7150;53.514;9.988;2023-05-07T04:49:48;15.50;85.00
14140;DHT22;7150;53.514;9.988;2023-05-07T04:52:14;15.50;85.20
14140;DHT22;7150;53.514;9.988;2023-05-07T04:54:40;15.50;85.30
14140;DHT22;7150;53.514;9.988;2023-05-07T04:57:06;15.50;85.30
14140;DHT22;7150;53.514;9.988;2023-05-07T04:59:32;15.50;85.30
14140;DHT22;7150;53.514;9.988;2023-05-07T05:01:58;15.50;85.30
14140;DHT22;7150;53.514;9.988;2023-05-07T05:04:23;15.50;85.20
14140;DHT22;7150;53.514;9.988;2023-05-07T05:06:49;15.50;85.20
14140;DHT22;7150;53.514;9.988;2023-05-07T05:09:14;15.50;85.20
14140;DHT22;7150;53.514;9.988;2023-05-07T05:11:41;15.50;85.20
14140;DHT22;7150;53.514;9.988;2023-05-07T05:14:06;15.50;85.00
14140;DHT22;7150;53.514;9.988;2023-05-07T05:16:32;15.40;84.90
14140;DHT22;7150;53.514;9.988;2023-05-07T05:18:58;15.60;85.00
14140;DHT22;7150;53.514;9.988;2023-05-07T05:21:23;15.60;84.90
14140;DHT22;7150;53.514;9.988;2023-05-07T05:23:49;15.60;84.90
14140;DHT22;7150;53.514;9.988;2023-05-07T05:26:14;15.60;84.70
14140;DHT22;7150;53.514;9.988;2023-05-07T05:28:40;15.60;84.60
14140;DHT22;7150;53.514;9.988;2023-05-07T05:31:05;15.60;84.50
14140;DHT22;7150;53.514;9.988;2023-05-07T05:33:31;15.60;84.40
14140;DHT22;7150;53.514;9.988;2023-05-07T05:35:56;15.60;84.40
14140;DHT22;7150;53.514;9.988;2023-05-07T05:38:22;15.60;84.50
14140;DHT22;7150;53.514;9.988;2023-05-07T05:40:47;15.60;84.50
14140;DHT22;7150;53.514;9.988;2023-05-07T05:43:14;15.60;84.40
14140;DHT22;7150;53.514;9.988;2023-05-07T05:45:40;15.60;84.30
14140;DHT22;7150;53.514;9.988;2023-05-07T05:48:06;15.60;84.30
14140;DHT22;7150;53.514;9.988;2023-05-07T05:50:31;15.60;84.40
14140;DHT22;7150;53.514;9.988;2023-05-07T05:52:57;15.70;84.50
14140;DHT22;7150;53.514;9.988;2023-05-07T05:55:23;15.70;84.50
14140;DHT22;7150;53.514;9.988;2023-05-07T05:57:49;15.70;84.50
14140;DHT22;7150;53.514;9.988;2023-05-07T06:00:16;15.60;84.40
14140;DHT22;7150;53.514;9.988;2023-05-07T06:02:41;15.70;84.50
14140;DHT22;7150;53.514;9.988;2023-05-07T06:05:08;15.70;84.30
14140;DHT22;7150;53.514;9.988;2023-05-07T06:07:33;15.70;84.30
14140;DHT22;7150;53.514;9.988;2023-05-07T06:10:00;15.70;84.40
14140;DHT22;7150;53.514;9.988;2023-05-07T06:12:26;15.70;84.40
14140;DHT22;7150;53.514;9.988;2023-05-07T06:14:51;15.70;84.30
14140;DHT22;7150;53.514;9.988;2023-05-07T06:17:17;15.70;84.30
14140;DHT22;7150;53.514;9.988;2023-05-07T06:19:42;15.70;84.30
14140;DHT22;7150;53.514;9.988;2023-05-07T06:22:08;15.70;84.20
14140;DHT22;7150;53.514;9.988;2023-05-07T06:24:33;15.80;84.10
14140;DHT22;7150;53.514;9.988;2023-05-07T06:26:59;15.80;84.10
14140;DHT22;7150;53.514;9.988;2023-05-07T06:29:24;15.80;84.00
14140;DHT22;7150;53.514;9.988;2023-05-07T06:31:52;15.80;83.80
14140;DHT22;7150;53.514;9.988;2023-05-07T06:34:17;15.80;83.70
14140;DHT22;7150;53.514;9.988;2023-05-07T06:36:43;15.80;83.60
14140;DHT22;7150;53.514;9.988;2023-05-07T06:39:08;15.80;83.60
14140;DHT22;7150;53.514;9.988;2023-05-07T06:41:34;15.80;83.60
14140;DHT22;7150;53.514;9.988;2023-05-07T06:44:04;15.90;83.60
14140;DHT22;7150;53.514;9.988;2023-05-07T06:46:30;15.90;83.50
14140;DHT22;7150;53.514;9.988;2023-05-07T06:48:56;15.90;83.60
14140;DHT22;7150;53.514;9.988;2023-05-07T06:51:22;15.90;83.70
14140;DHT22;7150;53.514;9.988;2023-05-07T06:53:48;15.90;83.50
14140;DHT22;7150;53.514;9.988;2023-05-07T06:56:13;15.90;83.50
14140;DHT22;7150;53.514;9.988;2023-05-07T06:58:39;15.90;83.70
14140;DHT22;7150;53.514;9.988;2023-05-07T07:01:04;15.90;83.80
14140;DHT22;7150;53.514;9.988;2023-05-07T07:03:30;15.90;83.80
14140;DHT22;7150;53.514;9.988;2023-05-07T07:05:55;16.00;83.90
14140;DHT22;7150;53.514;9.988;2023-05-07T07:08:22;16.00;84.00
14140;DHT22;7150;53.514;9.988;2023-05-07T07:10:47;16.00;84.00
14140;DHT22;7150;53.514;9.988;2023-05-07T07:13:13;16.00;84.00
14140;DHT22;7150;53.514;9.988;2023-05-07T07:15:39;16.00;83.80
14140;DHT22;7150;53.514;9.988;2023-05-07T07:18:05;16.00;84.00
14140;DHT22;7150;53.514;9.988;2023-05-07T07:20:31;16.00;84.00
14140;DHT22;7150;53.514;9.988;2023-05-07T07:22:57;16.00;83.90
14140;DHT22;7150;53.514;9.988;2023-05-07T07:25:22;16.10;84.00
14140;DHT22;7150;53.514;9.988;2023-05-07T07:27:49;16.10;83.90
14140;DHT22;7150;53.514;9.988;2023-05-07T07:30:15;16.10;83.80
14140;DHT22;7150;53.514;9.988;2023-05-07T07:32:40;16.00;83.50
14140;DHT22;7150;53.514;9.988;2023-05-07T07:35:06;16.10;83.40
14140;DHT22;7150;53.514;9.988;2023-05-07T07:37:32;16.20;83.50
14140;DHT22;7150;53.514;9.988;2023-05-07T07:39:57;16.20;83.40
14140;DHT22;7150;53.514;9.988;2023-05-07T07:42:23;16.10;83.40
14140;DHT22;7150;53.514;9.988;2023-05-07T07:44:48;16.20;83.50
14140;DHT22;7150;53.514;9.988;2023-05-07T07:47:14;16.20;83.30
14140;DHT22;7150;53.514;9.988;2023-05-07T07:49:39;16.30;83.40
14140;DHT22;7150;53.514;9.988;2023-05-07T07:52:05;16.30;83.00
14140;DHT22;7150;53.514;9.988;2023-05-07T07:54:30;16.40;83.00
14140;DHT22;7150;53.514;9.988;2023-05-07T07:56:56;16.30;83.00
14140;DHT22;7150;53.514;9.988;2023-05-07T07:59:21;16.40;83.20
14140;DHT22;7150;53.514;9.988;2023-05-07T08:01:48;16.40;83.20
14140;DHT22;7150;53.514;9.988;2023-05-07T08:04:15;16.40;83.00
14140;DHT22;7150;53.514;9.988;2023-05-07T08:06:40;16.50;82.90
14140;DHT22;7150;53.514;9.988;2023-05-07T08:09:06;16.50;82.80
14140;DHT22;7150;53.514;9.988;2023-05-07T08:11:31;16.50;82.60
14140;DHT22;7150;53.514;9.988;2023-05-07T08:13:57;16.40;82.80
14140;DHT22;7150;53.514;9.988;2023-05-07T08:16:22;16.40;83.00
14140;DHT22;7150;53.514;9.988;2023-05-07T08:18:48;16.50;82.90
14140;DHT22;7150;53.514;9.988;2023-05-07T08:21:14;16.50;82.80
14140;DHT22;7150;53.514;9.988;2023-05-07T08:23:40;16.50;82.60
14140;DHT22;7150;53.514;9.988;2023-05-07T08:26:05;16.50;82.50
14140;DHT22;7150;53.514;9.988;2023-05-07T08:28:31;16.60;82.40
14140;DHT22;7150;53.514;9.988;2023-05-07T08:30:56;16.60;82.20
14140;DHT22;7150;53.514;9.988;2023-05-07T08:33:22;16.60;82.00
14140;DHT22;7150;53.514;9.988;2023-05-07T08:35:47;16.50;81.90
14140;DHT22;7150;53.514;9.988;2023-05-07T08:38:13;16.50;81.70
14140;DHT22;7150;53.514;9.988;2023-05-07T08:40:39;16.60;81.80
14140;DHT22;7150;53.514;9.988;2023-05-07T08:43:06;16.60;81.80
14140;DHT22;7150;53.514;9.988;2023-05-07T08:45:33;16.60;81.80
14140;DHT22;7150;53.514;9.988;2023-05-07T08:48:02;16.70;82.00
14140;DHT22;7150;53.514;9.988;2023-05-07T08:50:28;16.70;81.60
14140;DHT22;7150;53.514;9.988;2023-05-07T08:52:54;16.70;81.60
14140;DHT22;7150;53.514;9.988;2023-05-07T08:55:21;16.70;81.50
14140;DHT22;7150;53.514;9.988;2023-05-07T08:57:47;16.70;81.50
14140;DHT22;7150;53.514;9.988;2023-05-07T09:00:13;16.70;81.50
14140;DHT22;7150;53.514;9.988;2023-05-07T09:02:39;16.70;81.60
14140;DHT22;7150;53.514;9.988;2023-05-07T09:05:05;16.70;81.60
14140;DHT22;7150;53.514;9.988;2023-05-07T09:07:31;16.80;81.80
14140;DHT22;7150;53.514;9.988;2023-05-07T09:09:56;16.80;81.70
14140;DHT22;7150;53.514;9.988;2023-05-07T09:12:23;16.90;81.60
14140;DHT22;7150;53.514;9.988;2023-05-07T09:14:49;16.90;81.60
14140;DHT22;7150;53.514;9.988;2023-05-07T09:17:18;16.90;81.70
14140;DHT22;7150;53.514;9.988;2023-05-07T09:19:44;16.90;81.70
14140;DHT22;7150;53.514;9.988;2023-05-07T09:22:11;17.00;81.60
14140;DHT22;7150;53.514;9.988;2023-05-07T09:24:37;17.00;81.40
14140;DHT22;7150;53.514;9.988;2023-05-07T09:27:04;17.00;81.20
14140;DHT22;7150;53.514;9.988;2023-05-07T09:29:30;17.10;81.40
14140;DHT22;7150;53.514;9.988;2023-05-07T09:32:01;17.00;81.30
14140;DHT22;7150;53.514;9.988;2023-05-07T09:34:26;17.10;81.20
14140;DHT22;7150;53.514;9.988;2023-05-07T09:36:53;17.10;81.20
14140;DHT22;7150;53.514;9.988;2023-05-07T09:39:19;17.10;81.20
14140;DHT22;7150;53.514;9.988;2023-05-07T09:41:46;17.10;80.90
14140;DHT22;7150;53.514;9.988;2023-05-07T09:44:12;17.20;80.90
14140;DHT22;7150;53.514;9.988;2023-05-07T09:46:39;17.20;80.90
14140;DHT22;7150;53.514;9.988;2023-05-07T09:49:07;17.20;80.70
14140;DHT22;7150;53.514;9.988;2023-05-07T09:51:50;17.30;80.70
14140;DHT22;7150;53.514;9.988;2023-05-07T09:54:17;17.30;80.60
14140;DHT22;7150;53.514;9.988;2023-05-07T09:56:48;17.30;80.70
14140;DHT22;7150;53.514;9.988;2023-05-07T09:59:14;17.40;80.80
14140;DHT22;7150;53.514;9.988;2023-05-07T10:01:42;17.40;80.70
14140;DHT22;7150;53.514;9.988;2023-05-07T10:04:08;17.40;80.80
14140;DHT22;7150;53.514;9.988;2023-05-07T10:06:35;17.40;80.60
14140;DHT22;7150;53.514;9.988;2023-05-07T10:09:01;17.40;80.60
14140;DHT22;7150;53.514;9.988;2023-05-07T10:11:28;17.40;80.50
14140;DHT22;7150;53.514;9.988;2023-05-07T10:13:53;17.50;80.70
14140;DHT22;7150;53.514;9.988;2023-05-07T10:16:19;17.50;80.30
14140;DHT22;7150;53.514;9.988;2023-05-07T10:18:46;17.50;80.20
14140;DHT22;7150;53.514;9.988;2023-05-07T10:21:18;17.50;80.40
14140;DHT22;7150;53.514;9.988;2023-05-07T10:23:53;17.50;80.40
14140;DHT22;7150;53.514;9.988;2023-05-07T10:26:22;17.50;80.30
14140;DHT22;7150;53.514;9.988;2023-05-07T10:28:53;17.50;80.10
14140;DHT22;7150;53.514;9.988;2023-05-07T10:31:50;17.50;80.00
14140;DHT22;7150;53.514;9.988;2023-05-07T10:34:23;17.60;79.80
14140;DHT22;7150;53.514;9.988;2023-05-07T10:36:49;17.50;79.60
14140;DHT22;7150;53.514;9.988;2023-05-07T10:39:15;17.50;79.70
14140;DHT22;7150;53.514;9.988;2023-05-07T10:41:41;17.60;79.90
14140;DHT22;7150;53.514;9.988;2023-05-07T10:44:06;17.50;80.00
14140;DHT22;7150;53.514;9.988;2023-05-07T10:46:32;17.50;79.90
14140;DHT22;7150;53.514;9.988;2023-05-07T10:51:26;17.60;80.00
14140;DHT22;7150;53.514;9.988;2023-05-07T10:56:42;17.70;79.70
14140;DHT22;7150;53.514;9.988;2023-05-07T11:01:56;17.70;79.60
14140;DHT22;7150;53.514;9.988;2023-05-07T11:04:23;17.80;79.60
14140;DHT22;7150;53.514;9.988;2023-05-07T11:10:03;17.90;79.20
14140;DHT22;7150;53.514;9.988;2023-05-07T11:15:01;17.90;79.20
14140;DHT22;7150;53.514;9.988;2023-05-07T11:17:27;18.10;78.70
14140;DHT22;7150;53.514;9.988;2023-05-07T11:19:57;18.10;78.70
14140;DHT22;7150;53.514;9.988;2023-05-07T11:25:03;18.20;78.40
14140;DHT22;7150;53.514;9.988;2023-05-07T11:27:29;18.20;78.10
14140;DHT22;7150;53.514;9.988;2023-05-07T11:29:55;18.20;78.30
14140;DHT22;7150;53.514;9.988;2023-05-07T11:34:54;18.30;78.30
14140;DHT22;7150;53.514;9.988;2023-05-07T11:37:20;18.40;78.20
14140;DHT22;7150;53.514;9.988;2023-05-07T11:39:46;18.40;78.10
14140;DHT22;7150;53.514;9.988;2023-05-07T11:42:28;18.50;78.00
14140;DHT22;7150;53.514;9.988;2023-05-07T11:44:53;18.60;77.80
14140;DHT22;7150;53.514;9.988;2023-05-07T11:47:19;18.60;77.60
14140;DHT22;7150;53.514;9.988;2023-05-07T11:49:49;18.70;77.50
14140;DHT22;7150;53.514;9.988;2023-05-07T11:52:20;18.80;77.10
14140;DHT22;7150;53.514;9.988;2023-05-07T11:54:53;18.80;76.70
14140;DHT22;7150;53.514;9.988;2023-05-07T11:57:19;18.80;76.80
14140;DHT22;7150;53.514;9.988;2023-05-07T11:59:45;18.80;76.80
14140;DHT22;7150;53.514;9.988;2023-05-07T12:02:14;18.90;76.90
14140;DHT22;7150;53.514;9.988;2023-05-07T12:04:40;19.10;76.30
14140;DHT22;7150;53.514;9.988;2023-05-07T12:07:10;19.20;75.10
14140;DHT22;7150;53.514;9.988;2023-05-07T12:09:36;19.30;75.10
14140;DHT22;7150;53.514;9.988;2023-05-07T12:12:05;19.30;75.10
14140;DHT22;7150;53.514;9.988;2023-05-07T12:14:31;19.30;74.60
14140;DHT22;7150;53.514;9.988;2023-05-07T12:16:58;19.30;74.60
14140;DHT22;7150;53.514;9.988;2023-05-07T12:19:24;19.30;74.60
14140;DHT22;7150;53.514;9.988;2023-05-07T12:21:50;19.20;74.50
14140;DHT22;7150;53.514;9.988;2023-05-07T12:24:16;19.30;74.60
14140;DHT22;7150;53.514;9.988;2023-05-07T12:26:41;19.30;74.50
14140;DHT22;7150;53.514;9.988;2023-05-07T12:29:08;19.30;74.60
14140;DHT22;7150;53.514;9.988;2023-05-07T12:31:34;19.30;74.50
14140;DHT22;7150;53.514;9.988;2023-05-07T12:33:59;19.40;74.40
14140;DHT22;7150;53.514;9.988;2023-05-07T12:36:25;19.40;74.40
14140;DHT22;7150;53.514;9.988;2023-05-07T12:38:51;19.40;74.30
14140;DHT22;7150;53.514;9.988;2023-05-07T12:41:16;19.40;74.20
14140;DHT22;7150;53.514;9.988;2023-05-07T12:43:45;19.40;74.00
14140;DHT22;7150;53.514;9.988;2023-05-07T12:46:11;19.40;73.80
14140;DHT22;7150;53.514;9.988;2023-05-07T12:48:44;19.40;73.60
14140;DHT22;7150;53.514;9.988;2023-05-07T12:51:11;19.40;73.50
14140;DHT22;7150;53.514;9.988;2023-05-07T12:53:42;19.50;73.50
14140;DHT22;7150;53.514;9.988;2023-05-07T12:56:08;19.50;73.30
14140;DHT22;7150;53.514;9.988;2023-05-07T12:58:35;19.50;73.20
14140;DHT22;7150;53.514;9.988;2023-05-07T13:01:06;19.50;73.90
14140;DHT22;7150;53.514;9.988;2023-05-07T13:03:33;19.50;73.20
14140;DHT22;7150;53.514;9.988;2023-05-07T13:06:01;19.60;73.50
14140;DHT22;7150;53.514;9.988;2023-05-07T13:08:35;19.70;73.60
14140;DHT22;7150;53.514;9.988;2023-05-07T13:11:03;19.80;73.20
14140;DHT22;7150;53.514;9.988;2023-05-07T13:13:36;20.00;72.80
14140;DHT22;7150;53.514;9.988;2023-05-07T13:16:03;20.00;72.70
14140;DHT22;7150;53.514;9.988;2023-05-07T13:18:32;20.10;72.80
14140;DHT22;7150;53.514;9.988;2023-05-07T13:20:58;20.10;72.80
14140;DHT22;7150;53.514;9.988;2023-05-07T13:23:24;20.30;72.90
14140;DHT22;7150;53.514;9.988;2023-05-07T13:25:50;20.30;72.70
14140;DHT22;7150;53.514;9.988;2023-05-07T13:28:16;20.30;72.10
14140;DHT22;7150;53.514;9.988;2023-05-07T13:30:41;20.40;71.90
14140;DHT22;7150;53.514;9.988;2023-05-07T13:33:08;20.40;71.60
14140;DHT22;7150;53.514;9.988;2023-05-07T13:35:33;20.50;71.80
14140;DHT22;7150;53.514;9.988;2023-05-07T13:37:59;20.60;71.50
14140;DHT22;7150;53.514;9.988;2023-05-07T13:40:25;20.70;70.80
14140;DHT22;7150;53.514;9.988;2023-05-07T13:42:50;20.80;70.90
14140;DHT22;7150;53.514;9.988;2023-05-07T13:45:20;20.90;70.20
14140;DHT22;7150;53.514;9.988;2023-05-07T13:47:46;21.00;70.10
14140;DHT22;7150;53.514;9.988;2023-05-07T13:50:12;21.10;69.90
14140;DHT22;7150;53.514;9.988;2023-05-07T13:52:42;21.20;69.90
14140;DHT22;7150;53.514;9.988;2023-05-07T13:55:11;21.30;69.60
14140;DHT22;7150;53.514;9.988;2023-05-07T13:57:37;21.40;69.70
14140;DHT22;7150;53.514;9.988;2023-05-07T14:00:04;21.60;68.70
14140;DHT22;7150;53.514;9.988;2023-05-07T14:02:30;21.70;68.50
14140;DHT22;7150;53.514;9.988;2023-05-07T14:04:56;21.90;68.10
14140;DHT22;7150;53.514;9.988;2023-05-07T14:07:21;22.30;67.90
14140;DHT22;7150;53.514;9.988;2023-05-07T14:09:47;22.70;66.40
14140;DHT22;7150;53.514;9.988;2023-05-07T14:12:12;23.00;66.60
14140;DHT22;7150;53.514;9.988;2023-05-07T14:14:38;23.40;66.10
14140;DHT22;7150;53.514;9.988;2023-05-07T14:17:03;23.90;64.70
14140;DHT22;7150;53.514;9.988;2023-05-07T14:19:28;24.40;64.30
14140;DHT22;7150;53.514;9.988;2023-05-07T14:21:54;24.80;63.60
14140;DHT22;7150;53.514;9.988;2023-05-07T14:24:20;25.40;62.30
14140;DHT22;7150;53.514;9.988;2023-05-07T14:26:45;26.00;61.00
14140;DHT22;7150;53.514;9.988;2023-05-07T14:29:11;26.60;59.60
14140;DHT22;7150;53.514;9.988;2023-05-07T14:31:36;27.00;56.70
14140;DHT22;7150;53.514;9.988;2023-05-07T14:34:02;27.30;56.20
14140;DHT22;7150;53.514;9.988;2023-05-07T14:36:27;27.70;56.30
14140;DHT22;7150;53.514;9.988;2023-05-07T14:38:53;28.30;54.90
14140;DHT22;7150;53.514;9.988;2023-05-07T14:41:20;28.90;54.50
14140;DHT22;7150;53.514;9.988;2023-05-07T14:43:47;29.50;54.10
14140;DHT22;7150;53.514;9.988;2023-05-07T14:46:16;30.20;53.20
14140;DHT22;7150;53.514;9.988;2023-05-07T14:48:43;30.80;50.70
14140;DHT22;7150;53.514;9.988;2023-05-07T14:51:09;31.30;50.40
14140;DHT22;7150;53.514;9.988;2023-05-07T14:53:35;32.20;48.60
14140;DHT22;7150;53.514;9.988;2023-05-07T14:56:00;33.10;47.10
14140;DHT22;7150;53.514;9.988;2023-05-07T14:58:26;34.10;46.60
14140;DHT22;7150;53.514;9.988;2023-05-07T15:00:51;35.00;44.20
14140;DHT22;7150;53.514;9.988;2023-05-07T15:03:17;35.50;43.70
14140;DHT22;7150;53.514;9.988;2023-05-07T15:05:42;35.70;42.60
14140;DHT22;7150;53.514;9.988;2023-05-07T15:08:08;35.70;42.10
14140;DHT22;7150;53.514;9.988;2023-05-07T15:10:37;35.90;41.70
14140;DHT22;7150;53.514;9.988;2023-05-07T15:13:07;36.50;41.30
14140;DHT22;7150;53.514;9.988;2023-05-07T15:15:32;37.00;39.50
14140;DHT22;7150;53.514;9.988;2023-05-07T15:17:58;37.40;39.10
14140;DHT22;7150;53.514;9.988;2023-05-07T15:20:25;37.40;38.90
14140;DHT22;7150;53.514;9.988;2023-05-07T15:22:51;36.40;39.10
14140;DHT22;7150;53.514;9.988;2023-05-07T15:25:16;35.10;40.20
14140;DHT22;7150;53.514;9.988;2023-05-07T15:27:42;33.60;41.50
14140;DHT22;7150;53.514;9.988;2023-05-07T15:30:07;32.00;42.90
14140;DHT22;7150;53.514;9.988;2023-05-07T15:32:35;30.70;44.60
14140;DHT22;7150;53.514;9.988;2023-05-07T15:35:02;29.50;46.30
14140;DHT22;7150;53.514;9.988;2023-05-07T15:37:27;28.60;47.60
14140;DHT22;7150;53.514;9.988;2023-05-07T15:39:53;27.70;48.80
14140;DHT22;7150;53.514;9.988;2023-05-07T15:42:18;27.10;50.00
14140;DHT22;7150;53.514;9.988;2023-05-07T15:44:45;26.50;51.20
14140;DHT22;7150;53.514;9.988;2023-05-07T15:47:11;25.90;52.10
14140;DHT22;7150;53.514;9.988;2023-05-07T15:49:39;25.50;52.60
14140;DHT22;7150;53.514;9.988;2023-05-07T15:52:04;25.10;53.10
14140;DHT22;7150;53.514;9.988;2023-05-07T15:54:30;24.80;53.60
14140;DHT22;7150;53.514;9.988;2023-05-07T15:56:56;24.60;54.10
14140;DHT22;7150;53.514;9.988;2023-05-07T15:59:21;24.20;54.60
14140;DHT22;7150;53.514;9.988;2023-05-07T16:01:46;24.00;55.20